Terminal Aerodrome Forecast
Issued by NWS Greer, SC

Home | Current Version | Previous Version | Graphics & Text | Print | Product List | Glossary On
Versions: 1 2 3 4 5 6 7 8 9 10 11 12 13 14 15
000
FTUS42 KGSP 271740
TAFAVL
TAF
KAVL 271740Z 2718/2818 15006KT P6SM SCT050
     FM271900 23005KT P6SM VCTS BKN035CB
     FM280300 30003KT P6SM BKN250 PROB30 2803/2808 4SM -TSRA
      OVC040CB
     FM281000 31003KT 4SM BR VCTS SCT070CB
     FM281300 29005KT P6SM SCT070 SCT250 PROB30 2814/2816 4SM -TSRA
      BKN250CB=

USA.gov is the U.S. government's official web portal to all federal, state and local government web resources and services.